sensor_id;sensor_type;location;lat;lon;timestamp;temperature;humidity
3868;DHT22;1949;48.152;11.528;2023-05-10T00:01:31;19.90;48.30
3868;DHT22;1949;48.152;11.528;2023-05-10T00:03:58;19.90;48.40
3868;DHT22;1949;48.152;11.528;2023-05-10T00:06:28;19.90;48.80
3868;DHT22;1949;48.152;11.528;2023-05-10T00:08:58;19.90;48.30
3868;DHT22;1949;48.152;11.528;2023-05-10T00:11:29;19.90;48.40
3868;DHT22;1949;48.152;11.528;2023-05-10T00:14:05;19.90;48.40
3868;DHT22;1949;48.152;11.528;2023-05-10T00:16:35;19.90;48.20
3868;DHT22;1949;48.152;11.528;2023-05-10T00:19:01;19.90;48.40
3868;DHT22;1949;48.152;11.528;2023-05-10T00:21:28;19.90;48.40
3868;DHT22;1949;48.152;11.528;2023-05-10T00:23:54;19.90;48.30
3868;DHT22;1949;48.152;11.528;2023-05-10T00:26:20;19.90;48.40
3868;DHT22;1949;48.152;11.528;2023-05-10T00:29:01;19.90;48.40
3868;DHT22;1949;48.152;11.528;2023-05-10T00:31:29;19.80;48.30
3868;DHT22;1949;48.152;11.528;2023-05-10T00:33:55;19.80;48.60
3868;DHT22;1949;48.152;11.528;2023-05-10T00:36:21;19.70;48.50
3868;DHT22;1949;48.152;11.528;2023-05-10T00:38:49;19.80;48.70
3868;DHT22;1949;48.152;11.528;2023-05-10T00:41:16;19.80;48.90
3868;DHT22;1949;48.152;11.528;2023-05-10T00:43:44;19.80;48.70
3868;DHT22;1949;48.152;11.528;2023-05-10T00:46:09;19.70;48.70
3868;DHT22;1949;48.152;11.528;2023-05-10T00:48:43;19.70;48.70
3868;DHT22;1949;48.152;11.528;2023-05-10T00:51:17;19.70;49.00
3868;DHT22;1949;48.152;11.528;2023-05-10T00:53:46;19.70;49.00
3868;DHT22;1949;48.152;11.528;2023-05-10T00:56:13;19.70;48.90
3868;DHT22;1949;48.152;11.528;2023-05-10T00:58:41;19.70;48.70
3868;DHT22;1949;48.152;11.528;2023-05-10T01:01:08;19.70;48.80
3868;DHT22;1949;48.152;11.528;2023-05-10T01:03:36;19.60;48.80
3868;DHT22;1949;48.152;11.528;2023-05-10T01:06:02;19.60;49.10
3868;DHT22;1949;48.152;11.528;2023-05-10T01:08:28;19.60;49.00
3868;DHT22;1949;48.152;11.528;2023-05-10T01:10:54;19.50;48.90
3868;DHT22;1949;48.152;11.528;2023-05-10T01:13:33;19.50;49.20
3868;DHT22;1949;48.152;11.528;2023-05-10T01:16:02;19.40;49.10
3868;DHT22;1949;48.152;11.528;2023-05-10T01:18:38;19.30;49.10
3868;DHT22;1949;48.152;11.528;2023-05-10T01:38:16;19.30;49.50
3868;DHT22;1949;48.152;11.528;2023-05-10T01:41:11;19.30;49.30
3868;DHT22;1949;48.152;11.528;2023-05-10T01:46:33;19.20;49.30
3868;DHT22;1949;48.152;11.528;2023-05-10T01:49:02;19.20;49.50
3868;DHT22;1949;48.152;11.528;2023-05-10T01:51:45;19.20;49.50
3868;DHT22;1949;48.152;11.528;2023-05-10T01:54:17;19.20;49.70
3868;DHT22;1949;48.152;11.528;2023-05-10T01:56:55;19.30;49.80
3868;DHT22;1949;48.152;11.528;2023-05-10T01:59:33;19.30;49.80
3868;DHT22;1949;48.152;11.528;2023-05-10T02:02:04;19.30;49.70
3868;DHT22;1949;48.152;11.528;2023-05-10T02:04:35;19.30;49.70
3868;DHT22;1949;48.152;11.528;2023-05-10T02:07:00;19.30;49.70
3868;DHT22;1949;48.152;11.528;2023-05-10T02:09:30;19.30;49.40
3868;DHT22;1949;48.152;11.528;2023-05-10T02:18:41;19.20;49.80
3868;DHT22;1949;48.152;11.528;2023-05-10T02:24:32;19.20;49.60
3868;DHT22;1949;48.152;11.528;2023-05-10T02:30:21;19.00;49.80
3868;DHT22;1949;48.152;11.528;2023-05-10T02:39:33;19.00;49.90
3868;DHT22;1949;48.152;11.528;2023-05-10T02:48:42;19.00;50.00
3868;DHT22;1949;48.152;11.528;2023-05-10T02:54:33;18.90;50.00
3868;DHT22;1949;48.152;11.528;2023-05-10T02:57:04;18.90;50.20
3868;DHT22;1949;48.152;11.528;2023-05-10T03:06:00;18.80;50.20
3868;DHT22;1949;48.152;11.528;2023-05-10T03:08:58;18.80;50.20
3868;DHT22;1949;48.152;11.528;2023-05-10T03:11:28;18.70;50.30
3868;DHT22;1949;48.152;11.528;2023-05-10T03:23:50;18.80;50.40
3868;DHT22;1949;48.152;11.528;2023-05-10T03:29:37;18.80;50.40
3868;DHT22;1949;48.152;11.528;2023-05-10T03:32:03;18.70;50.50
3868;DHT22;1949;48.152;11.528;2023-05-10T03:34:30;18.80;50.80
3868;DHT22;1949;48.152;11.528;2023-05-10T03:36:56;18.80;50.90
3868;DHT22;1949;48.152;11.528;2023-05-10T03:39:28;18.80;50.80
3868;DHT22;1949;48.152;11.528;2023-05-10T03:48:38;18.80;50.70
3868;DHT22;1949;48.152;11.528;2023-05-10T03:54:26;18.90;50.90
3868;DHT22;1949;48.152;11.528;2023-05-10T03:56:51;18.90;50.90
3868;DHT22;1949;48.152;11.528;2023-05-10T03:59:17;18.90;51.00
3868;DHT22;1949;48.152;11.528;2023-05-10T04:01:57;18.80;50.90
3868;DHT22;1949;48.152;11.528;2023-05-10T04:07:21;18.80;50.80
3868;DHT22;1949;48.152;11.528;2023-05-10T04:09:47;18.80;51.00
3868;DHT22;1949;48.152;11.528;2023-05-10T04:12:16;18.70;51.10
3868;DHT22;1949;48.152;11.528;2023-05-10T04:14:41;18.70;51.10
3868;DHT22;1949;48.152;11.528;2023-05-10T04:20:41;18.70;51.00
3868;DHT22;1949;48.152;11.528;2023-05-10T04:26:37;18.70;51.10
3868;DHT22;1949;48.152;11.528;2023-05-10T04:32:52;18.70;51.20
3868;DHT22;1949;48.152;11.528;2023-05-10T04:35:23;18.70;51.30
3868;DHT22;1949;48.152;11.528;2023-05-10T04:38:15;18.80;51.40
3868;DHT22;1949;48.152;11.528;2023-05-10T04:40:43;18.70;51.30
3868;DHT22;1949;48.152;11.528;2023-05-10T04:46:12;18.70;51.30
3868;DHT22;1949;48.152;11.528;2023-05-10T04:48:38;18.70;51.30
3868;DHT22;1949;48.152;11.528;2023-05-10T04:51:03;18.70;51.40
3868;DHT22;1949;48.152;11.528;2023-05-10T04:53:30;18.70;51.50
3868;DHT22;1949;48.152;11.528;2023-05-10T04:55:55;18.70;51.50
3868;DHT22;1949;48.152;11.528;2023-05-10T04:58:26;18.70;51.50
3868;DHT22;1949;48.152;11.528;2023-05-10T05:04:13;18.70;51.40
3868;DHT22;1949;48.152;11.528;2023-05-10T05:06:52;18.60;51.30
3868;DHT22;1949;48.152;11.528;2023-05-10T05:12:39;18.60;51.40
3868;DHT22;1949;48.152;11.528;2023-05-10T05:15:22;18.50;51.30
3868;DHT22;1949;48.152;11.528;2023-05-10T05:21:17;18.60;51.40
3868;DHT22;1949;48.152;11.528;2023-05-10T05:24:01;18.50;51.50
3868;DHT22;1949;48.152;11.528;2023-05-10T05:29:53;18.60;51.60
3868;DHT22;1949;48.152;11.528;2023-05-10T05:32:32;18.60;51.50
3868;DHT22;1949;48.152;11.528;2023-05-10T05:35:06;18.60;51.90
3868;DHT22;1949;48.152;11.528;2023-05-10T05:37:45;18.60;51.50
3868;DHT22;1949;48.152;11.528;2023-05-10T05:50:24;18.60;51.30
3868;DHT22;1949;48.152;11.528;2023-05-10T05:56:12;18.60;51.50
3868;DHT22;1949;48.152;11.528;2023-05-10T05:58:48;18.60;51.50
3868;DHT22;1949;48.152;11.528;2023-05-10T06:01:50;18.60;51.40
3868;DHT22;1949;48.152;11.528;2023-05-10T06:04:41;18.70;51.50
3868;DHT22;1949;48.152;11.528;2023-05-10T06:10:32;18.70;51.30
3868;DHT22;1949;48.152;11.528;2023-05-10T06:13:15;18.80;51.40
3868;DHT22;1949;48.152;11.528;2023-05-10T06:16:01;18.80;51.40
3868;DHT22;1949;48.152;11.528;2023-05-10T06:21:49;18.80;51.20
3868;DHT22;1949;48.152;11.528;2023-05-10T06:28:12;18.80;51.40
3868;DHT22;1949;48.152;11.528;2023-05-10T06:37:21;18.80;51.80
3868;DHT22;1949;48.152;11.528;2023-05-10T06:49:38;18.90;51.30
3868;DHT22;1949;48.152;11.528;2023-05-10T06:55:27;18.90;51.20
3868;DHT22;1949;48.152;11.528;2023-05-10T06:58:03;18.90;51.40
3868;DHT22;1949;48.152;11.528;2023-05-10T07:00:47;18.90;51.40
3868;DHT22;1949;48.152;11.528;2023-05-10T07:06:36;18.90;51.10
3868;DHT22;1949;48.152;11.528;2023-05-10T07:12:24;18.80;51.30
3868;DHT22;1949;48.152;11.528;2023-05-10T07:14:50;18.90;51.40
3868;DHT22;1949;48.152;11.528;2023-05-10T07:17:30;18.90;51.30
3868;DHT22;1949;48.152;11.528;2023-05-10T07:20:02;18.90;51.40
3868;DHT22;1949;48.152;11.528;2023-05-10T07:22:52;18.90;51.30
3868;DHT22;1949;48.152;11.528;2023-05-10T07:25:34;19.00;51.40
3868;DHT22;1949;48.152;11.528;2023-05-10T07:28:15;19.10;51.50
3868;DHT22;1949;48.152;11.528;2023-05-10T07:30:42;19.10;51.30
3868;DHT22;1949;48.152;11.528;2023-05-10T07:33:30;19.10;51.10
3868;DHT22;1949;48.152;11.528;2023-05-10T07:39:20;19.00;51.10
3868;DHT22;1949;48.152;11.528;2023-05-10T07:48:11;19.00;50.90
3868;DHT22;1949;48.152;11.528;2023-05-10T07:50:39;18.90;50.80
3868;DHT22;1949;48.152;11.528;2023-05-10T07:56:53;18.90;50.80
3868;DHT22;1949;48.152;11.528;2023-05-10T08:02:22;18.90;51.00
3868;DHT22;1949;48.152;11.528;2023-05-10T08:04:49;19.00;51.20
3868;DHT22;1949;48.152;11.528;2023-05-10T08:07:20;19.00;50.90
3868;DHT22;1949;48.152;11.528;2023-05-10T08:09:58;19.10;50.90
3868;DHT22;1949;48.152;11.528;2023-05-10T08:12:24;19.10;51.00
3868;DHT22;1949;48.152;11.528;2023-05-10T08:14:51;19.20;50.90
3868;DHT22;1949;48.152;11.528;2023-05-10T08:17:17;19.20;50.80
3868;DHT22;1949;48.152;11.528;2023-05-10T08:19:43;19.20;50.70
3868;DHT22;1949;48.152;11.528;2023-05-10T08:22:14;19.30;50.70
3868;DHT22;1949;48.152;11.528;2023-05-10T08:24:39;19.30;50.70
3868;DHT22;1949;48.152;11.528;2023-05-10T08:27:08;19.40;50.60
3868;DHT22;1949;48.152;11.528;2023-05-10T08:29:34;19.40;50.50
3868;DHT22;1949;48.152;11.528;2023-05-10T08:32:00;19.40;50.50
3868;DHT22;1949;48.152;11.528;2023-05-10T08:34:28;19.50;50.50
3868;DHT22;1949;48.152;11.528;2023-05-10T08:36:55;19.50;50.40
3868;DHT22;1949;48.152;11.528;2023-05-10T08:39:20;19.50;50.20
3868;DHT22;1949;48.152;11.528;2023-05-10T08:41:47;19.60;50.20
3868;DHT22;1949;48.152;11.528;2023-05-10T08:44:15;19.60;50.10
3868;DHT22;1949;48.152;11.528;2023-05-10T08:46:44;19.60;50.20
3868;DHT22;1949;48.152;11.528;2023-05-10T08:49:16;19.60;50.00
3868;DHT22;1949;48.152;11.528;2023-05-10T08:51:51;19.60;49.90
3868;DHT22;1949;48.152;11.528;2023-05-10T08:54:19;19.60;49.90
3868;DHT22;1949;48.152;11.528;2023-05-10T08:56:47;19.50;49.70
3868;DHT22;1949;48.152;11.528;2023-05-10T08:59:16;19.50;49.90
3868;DHT22;1949;48.152;11.528;2023-05-10T09:01:43;19.50;49.90
3868;DHT22;1949;48.152;11.528;2023-05-10T09:04:10;19.50;50.00
3868;DHT22;1949;48.152;11.528;2023-05-10T09:06:37;19.50;50.20
3868;DHT22;1949;48.152;11.528;2023-05-10T09:09:03;19.60;50.30
3868;DHT22;1949;48.152;11.528;2023-05-10T09:11:30;19.70;50.20
3868;DHT22;1949;48.152;11.528;2023-05-10T09:13:56;19.80;50.00
3868;DHT22;1949;48.152;11.528;2023-05-10T09:16:23;19.80;50.00
3868;DHT22;1949;48.152;11.528;2023-05-10T09:18:49;19.90;49.90
3868;DHT22;1949;48.152;11.528;2023-05-10T09:21:15;19.90;49.60
3868;DHT22;1949;48.152;11.528;2023-05-10T09:23:47;19.90;49.40
3868;DHT22;1949;48.152;11.528;2023-05-10T09:26:15;19.90;49.10
3868;DHT22;1949;48.152;11.528;2023-05-10T09:28:52;19.80;49.10
3868;DHT22;1949;48.152;11.528;2023-05-10T09:31:18;19.80;49.30
3868;DHT22;1949;48.152;11.528;2023-05-10T09:33:53;19.70;49.10
3868;DHT22;1949;48.152;11.528;2023-05-10T09:36:19;19.80;49.30
3868;DHT22;1949;48.152;11.528;2023-05-10T09:38:52;19.80;49.20
3868;DHT22;1949;48.152;11.528;2023-05-10T09:41:22;19.80;49.10
3868;DHT22;1949;48.152;11.528;2023-05-10T09:43:49;19.80;49.20
3868;DHT22;1949;48.152;11.528;2023-05-10T09:46:24;19.80;49.20
3868;DHT22;1949;48.152;11.528;2023-05-10T09:48:51;19.80;49.10
3868;DHT22;1949;48.152;11.528;2023-05-10T09:51:24;19.80;49.10
3868;DHT22;1949;48.152;11.528;2023-05-10T09:54:12;19.80;49.00
3868;DHT22;1949;48.152;11.528;2023-05-10T09:56:39;19.80;49.10
3868;DHT22;1949;48.152;11.528;2023-05-10T09:59:11;19.80;48.90
3868;DHT22;1949;48.152;11.528;2023-05-10T10:01:42;19.90;49.00
3868;DHT22;1949;48.152;11.528;2023-05-10T10:04:15;19.90;49.00
3868;DHT22;1949;48.152;11.528;2023-05-10T10:06:43;19.90;48.80
3868;DHT22;1949;48.152;11.528;2023-05-10T10:09:10;19.90;48.70
3868;DHT22;1949;48.152;11.528;2023-05-10T10:11:38;19.90;48.60
3868;DHT22;1949;48.152;11.528;2023-05-10T10:14:05;19.90;48.60
3868;DHT22;1949;48.152;11.528;2023-05-10T10:16:32;19.90;48.70
3868;DHT22;1949;48.152;11.528;2023-05-10T10:18:58;19.90;48.60
3868;DHT22;1949;48.152;11.528;2023-05-10T10:21:25;20.00;48.70
3868;DHT22;1949;48.152;11.528;2023-05-10T10:23:54;20.00;48.70
3868;DHT22;1949;48.152;11.528;2023-05-10T10:26:20;20.00;48.70
3868;DHT22;1949;48.152;11.528;2023-05-10T10:31:57;20.10;48.80
3868;DHT22;1949;48.152;11.528;2023-05-10T10:34:30;20.20;48.70
3868;DHT22;1949;48.152;11.528;2023-05-10T10:37:04;20.20;48.40
3868;DHT22;1949;48.152;11.528;2023-05-10T10:39:30;20.20;48.70
3868;DHT22;1949;48.152;11.528;2023-05-10T10:41:59;20.30;48.20
3868;DHT22;1949;48.152;11.528;2023-05-10T10:44:33;20.30;48.10
3868;DHT22;1949;48.152;11.528;2023-05-10T10:47:06;20.30;47.80
3868;DHT22;1949;48.152;11.528;2023-05-10T10:50:03;20.30;48.40
3868;DHT22;1949;48.152;11.528;2023-05-10T10:52:35;20.30;48.00
3868;DHT22;1949;48.152;11.528;2023-05-10T10:55:20;20.20;47.80
3868;DHT22;1949;48.152;11.528;2023-05-10T10:57:57;20.20;47.90
3868;DHT22;1949;48.152;11.528;2023-05-10T11:05:39;20.10;48.20
3868;DHT22;1949;48.152;11.528;2023-05-10T11:08:10;20.10;48.40
3868;DHT22;1949;48.152;11.528;2023-05-10T11:10:37;20.20;48.70
3868;DHT22;1949;48.152;11.528;2023-05-10T11:13:33;20.20;48.60
3868;DHT22;1949;48.152;11.528;2023-05-10T11:16:13;20.20;48.30
3868;DHT22;1949;48.152;11.528;2023-05-10T11:18:40;20.20;48.50
3868;DHT22;1949;48.152;11.528;2023-05-10T11:21:15;20.20;48.50
3868;DHT22;1949;48.152;11.528;2023-05-10T11:26:14;20.20;48.20
3868;DHT22;1949;48.152;11.528;2023-05-10T11:28:44;20.10;48.30
3868;DHT22;1949;48.152;11.528;2023-05-10T11:31:14;20.10;48.20
3868;DHT22;1949;48.152;11.528;2023-05-10T11:33:48;20.00;48.10
3868;DHT22;1949;48.152;11.528;2023-05-10T11:36:18;19.90;48.00
3868;DHT22;1949;48.152;11.528;2023-05-10T11:38:44;19.90;48.20
3868;DHT22;1949;48.152;11.528;2023-05-10T11:41:13;19.80;48.30
3868;DHT22;1949;48.152;11.528;2023-05-10T11:43:40;19.70;48.40
3868;DHT22;1949;48.152;11.528;2023-05-10T11:46:11;19.60;48.50
3868;DHT22;1949;48.152;11.528;2023-05-10T11:48:42;19.60;48.70
3868;DHT22;1949;48.152;11.528;2023-05-10T11:51:08;19.50;48.90
3868;DHT22;1949;48.152;11.528;2023-05-10T11:53:36;19.50;49.00
3868;DHT22;1949;48.152;11.528;2023-05-10T11:56:10;19.50;49.10
3868;DHT22;1949;48.152;11.528;2023-05-10T11:58:39;19.50;49.00
3868;DHT22;1949;48.152;11.528;2023-05-10T12:01:09;19.40;48.80
3868;DHT22;1949;48.152;11.528;2023-05-10T12:03:36;19.30;49.00
3868;DHT22;1949;48.152;11.528;2023-05-10T12:06:02;19.30;49.00
3868;DHT22;1949;48.152;11.528;2023-05-10T12:08:30;19.20;49.00
3868;DHT22;1949;48.152;11.528;2023-05-10T12:11:09;19.10;48.90
3868;DHT22;1949;48.152;11.528;2023-05-10T12:13:43;19.00;49.10
3868;DHT22;1949;48.152;11.528;2023-05-10T12:16:19;18.90;49.50
3868;DHT22;1949;48.152;11.528;2023-05-10T12:18:58;19.00;49.70
3868;DHT22;1949;48.152;11.528;2023-05-10T12:21:25;18.90;49.50
3868;DHT22;1949;48.152;11.528;2023-05-10T12:23:54;19.00;49.50
3868;DHT22;1949;48.152;11.528;2023-05-10T12:26:25;18.90;49.60
3868;DHT22;1949;48.152;11.528;2023-05-10T12:29:14;18.90;49.50
3868;DHT22;1949;48.152;11.528;2023-05-10T12:31:56;18.90;49.50
3868;DHT22;1949;48.152;11.528;2023-05-10T12:34:40;18.90;49.70
3868;DHT22;1949;48.152;11.528;2023-05-10T12:37:06;18.90;49.50
3868;DHT22;1949;48.152;11.528;2023-05-10T12:39:43;18.90;49.50
3868;DHT22;1949;48.152;11.528;2023-05-10T12:42:12;18.90;49.90
3868;DHT22;1949;48.152;11.528;2023-05-10T12:44:38;18.90;49.90
3868;DHT22;1949;48.152;11.528;2023-05-10T12:47:04;18.90;49.90
3868;DHT22;1949;48.152;11.528;2023-05-10T12:49:29;19.00;49.80
3868;DHT22;1949;48.152;11.528;2023-05-10T12:51:56;19.00;49.90
3868;DHT22;1949;48.152;11.528;2023-05-10T12:54:22;19.00;49.80
3868;DHT22;1949;48.152;11.528;2023-05-10T12:56:48;19.00;49.90
3868;DHT22;1949;48.152;11.528;2023-05-10T12:59:14;19.10;50.00
3868;DHT22;1949;48.152;11.528;2023-05-10T13:01:39;19.10;50.00
3868;DHT22;1949;48.152;11.528;2023-05-10T13:04:06;19.20;50.10
3868;DHT22;1949;48.152;11.528;2023-05-10T13:06:32;19.20;50.10
3868;DHT22;1949;48.152;11.528;2023-05-10T13:08:59;19.30;50.00
3868;DHT22;1949;48.152;11.528;2023-05-10T13:11:25;19.30;49.80
3868;DHT22;1949;48.152;11.528;2023-05-10T13:13:51;19.30;49.70
3868;DHT22;1949;48.152;11.528;2023-05-10T13:16:22;19.30;49.60
3868;DHT22;1949;48.152;11.528;2023-05-10T13:18:52;19.20;49.60
3868;DHT22;1949;48.152;11.528;2023-05-10T13:21:18;19.20;49.80
3868;DHT22;1949;48.152;11.528;2023-05-10T13:23:44;19.20;49.90
3868;DHT22;1949;48.152;11.528;2023-05-10T13:26:11;19.10;50.10
3868;DHT22;1949;48.152;11.528;2023-05-10T13:28:39;19.10;50.00
3868;DHT22;1949;48.152;11.528;2023-05-10T13:31:08;19.10;50.10
3868;DHT22;1949;48.152;11.528;2023-05-10T13:33:33;19.10;49.80
3868;DHT22;1949;48.152;11.528;2023-05-10T13:35:59;19.00;50.20
3868;DHT22;1949;48.152;11.528;2023-05-10T13:38:25;19.00;50.10
3868;DHT22;1949;48.152;11.528;2023-05-10T13:40:51;19.10;50.30
3868;DHT22;1949;48.152;11.528;2023-05-10T13:43:18;19.10;50.30
3868;DHT22;1949;48.152;11.528;2023-05-10T13:45:44;19.10;49.90
3868;DHT22;1949;48.152;11.528;2023-05-10T13:48:10;18.90;49.90
3868;DHT22;1949;48.152;11.528;2023-05-10T13:50:35;18.90;50.10
3868;DHT22;1949;48.152;11.528;2023-05-10T13:53:03;18.90;50.00
3868;DHT22;1949;48.152;11.528;2023-05-10T13:55:29;18.80;50.20
3868;DHT22;1949;48.152;11.528;2023-05-10T13:57:55;18.90;50.20
3868;DHT22;1949;48.152;11.528;2023-05-10T14:00:22;18.80;50.20
3868;DHT22;1949;48.152;11.528;2023-05-10T14:02:48;18.80;50.20
3868;DHT22;1949;48.152;11.528;2023-05-10T14:05:14;18.80;50.10
3868;DHT22;1949;48.152;11.528;2023-05-10T14:07:41;18.80;50.30
3868;DHT22;1949;48.152;11.528;2023-05-10T14:10:07;18.70;50.10
3868;DHT22;1949;48.152;11.528;2023-05-10T14:12:33;18.70;50.40
3868;DHT22;1949;48.152;11.528;2023-05-10T14:14:59;18.70;50.30
3868;DHT22;1949;48.152;11.528;2023-05-10T14:17:24;18.60;50.30
3868;DHT22;1949;48.152;11.528;2023-05-10T14:19:50;18.60;50.50
3868;DHT22;1949;48.152;11.528;2023-05-10T14:22:16;18.50;50.40
3868;DHT22;1949;48.152;11.528;2023-05-10T14:24:41;18.50;50.50
3868;DHT22;1949;48.152;11.528;2023-05-10T14:27:09;18.50;50.60
3868;DHT22;1949;48.152;11.528;2023-05-10T14:29:36;18.50;50.60
3868;DHT22;1949;48.152;11.528;2023-05-10T14:32:02;18.40;50.50
3868;DHT22;1949;48.152;11.528;2023-05-10T14:34:28;18.40;50.60
3868;DHT22;1949;48.152;11.528;2023-05-10T14:36:54;18.30;50.60
3868;DHT22;1949;48.152;11.528;2023-05-10T14:39:19;18.30;51.00
3868;DHT22;1949;48.152;11.528;2023-05-10T14:41:45;18.30;51.00
3868;DHT22;1949;48.152;11.528;2023-05-10T14:44:13;18.40;50.90
3868;DHT22;1949;48.152;11.528;2023-05-10T14:46:40;18.40;50.80
3868;DHT22;1949;48.152;11.528;2023-05-10T14:49:11;18.40;50.80
3868;DHT22;1949;48.152;11.528;2023-05-10T14:51:38;18.40;50.90
3868;DHT22;1949;48.152;11.528;2023-05-10T14:54:05;18.30;50.90
3868;DHT22;1949;48.152;11.528;2023-05-10T14:56:31;18.40;51.10
3868;DHT22;1949;48.152;11.528;2023-05-10T14:59:00;18.40;51.00
3868;DHT22;1949;48.152;11.528;2023-05-10T15:01:26;18.50;51.10
3868;DHT22;1949;48.152;11.528;2023-05-10T15:03:54;18.50;51.00
3868;DHT22;1949;48.152;11.528;2023-05-10T15:06:30;18.60;51.00
3868;DHT22;1949;48.152;11.528;2023-05-10T15:08:57;18.50;50.50
3868;DHT22;1949;48.152;11.528;2023-05-10T15:11:25;18.50;50.60
3868;DHT22;1949;48.152;11.528;2023-05-10T15:13:51;18.50;50.80
3868;DHT22;1949;48.152;11.528;2023-05-10T15:16:17;18.40;50.80
3868;DHT22;1949;48.152;11.528;2023-05-10T15:18:45;18.40;51.00
3868;DHT22;1949;48.152;11.528;2023-05-10T15:21:11;18.40;50.90
3868;DHT22;1949;48.152;11.528;2023-05-10T15:23:39;18.40;50.80
3868;DHT22;1949;48.152;11.528;2023-05-10T15:26:05;18.40;51.10
3868;DHT22;1949;48.152;11.528;2023-05-10T15:28:31;18.40;51.00
3868;DHT22;1949;48.152;11.528;2023-05-10T15:30:57;18.40;50.90
3868;DHT22;1949;48.152;11.528;2023-05-10T15:33:22;18.40;50.80
3868;DHT22;1949;48.152;11.528;2023-05-10T15:35:48;18.40;50.90
3868;DHT22;1949;48.152;11.528;2023-05-10T15:38:14;18.40;51.00
3868;DHT22;1949;48.152;11.528;2023-05-10T15:40:41;18.40;51.00
3868;DHT22;1949;48.152;11.528;2023-05-10T15:43:07;18.40;50.90
3868;DHT22;1949;48.152;11.528;2023-05-10T15:45:32;18.30;50.80
3868;DHT22;1949;48.152;11.528;2023-05-10T15:47:58;18.30;51.00
3868;DHT22;1949;48.152;11.528;2023-05-10T15:50:26;18.30;51.00
3868;DHT22;1949;48.152;11.528;2023-05-10T15:52:54;18.30;51.00
3868;DHT22;1949;48.152;11.528;2023-05-10T15:55:20;18.30;50.80
3868;DHT22;1949;48.152;11.528;2023-05-10T15:57:46;18.20;50.90
3868;DHT22;1949;48.152;11.528;2023-05-10T16:00:14;18.30;51.10
3868;DHT22;1949;48.152;11.528;2023-05-10T16:02:40;18.30;51.10
3868;DHT22;1949;48.152;11.528;2023-05-10T16:05:07;18.30;51.00
3868;DHT22;1949;48.152;11.528;2023-05-10T16:07:34;18.30;51.10
3868;DHT22;1949;48.152;11.528;2023-05-10T16:09:59;18.30;51.10
3868;DHT22;1949;48.152;11.528;2023-05-10T16:12:29;18.20;50.90
3868;DHT22;1949;48.152;11.528;2023-05-10T16:14:55;18.20;51.00
3868;DHT22;1949;48.152;11.528;2023-05-10T16:17:21;18.20;51.30
3868;DHT22;1949;48.152;11.528;2023-05-10T16:19:47;18.20;51.40
3868;DHT22;1949;48.152;11.528;2023-05-10T16:22:14;18.20;51.00
3868;DHT22;1949;48.152;11.528;2023-05-10T16:24:39;18.20;51.20
3868;DHT22;1949;48.152;11.528;2023-05-10T16:27:06;18.20;51.20
3868;DHT22;1949;48.152;11.528;2023-05-10T16:29:32;18.30;51.20
3868;DHT22;1949;48.152;11.528;2023-05-10T16:31:57;18.20;51.00
3868;DHT22;1949;48.152;11.528;2023-05-10T16:34:24;18.20;51.00
3868;DHT22;1949;48.152;11.528;2023-05-10T16:36:50;18.20;51.10
3868;DHT22;1949;48.152;11.528;2023-05-10T16:39:17;18.20;51.10
3868;DHT22;1949;48.152;11.528;2023-05-10T16:41:43;18.10;51.20
3868;DHT22;1949;48.152;11.528;2023-05-10T16:44:09;18.10;51.30
3868;DHT22;1949;48.152;11.528;2023-05-10T16:46:36;18.10;51.30
3868;DHT22;1949;48.152;11.528;2023-05-10T16:49:01;18.10;51.10
3868;DHT22;1949;48.152;11.528;2023-05-10T16:51:27;18.00;51.00
3868;DHT22;1949;48.152;11.528;2023-05-10T16:53:54;17.90;51.10
3868;DHT22;1949;48.152;11.528;2023-05-10T16:56:20;17.80;51.40
3868;DHT22;1949;48.152;11.528;2023-05-10T16:58:50;17.80;51.10
3868;DHT22;1949;48.152;11.528;2023-05-10T17:01:17;17.70;51.20
3868;DHT22;1949;48.152;11.528;2023-05-10T17:03:43;17.70;51.90
3868;DHT22;1949;48.152;11.528;2023-05-10T17:06:11;17.60;51.30
3868;DHT22;1949;48.152;11.528;2023-05-10T17:08:38;17.50;51.30
3868;DHT22;1949;48.152;11.528;2023-05-10T17:11:04;17.60;51.50
3868;DHT22;1949;48.152;11.528;2023-05-10T17:13:30;17.60;51.60
3868;DHT22;1949;48.152;11.528;2023-05-10T17:15:56;17.50;51.20
3868;DHT22;1949;48.152;11.528;2023-05-10T17:18:24;17.50;51.40
3868;DHT22;1949;48.152;11.528;2023-05-10T17:20:51;17.50;51.20
3868;DHT22;1949;48.152;11.528;2023-05-10T17:23:18;17.50;51.30
3868;DHT22;1949;48.152;11.528;2023-05-10T17:25:44;17.50;51.20
3868;DHT22;1949;48.152;11.528;2023-05-10T17:28:10;17.40;51.00
3868;DHT22;1949;48.152;11.528;2023-05-10T17:30:36;17.40;51.20
3868;DHT22;1949;48.152;11.528;2023-05-10T17:33:04;17.40;51.10
3868;DHT22;1949;48.152;11.528;2023-05-10T17:35:30;17.40;51.20
3868;DHT22;1949;48.152;11.528;2023-05-10T17:37:56;17.40;51.40
3868;DHT22;1949;48.152;11.528;2023-05-10T17:40:22;17.50;51.50
3868;DHT22;1949;48.152;11.528;2023-05-10T17:42:48;17.50;51.20
3868;DHT22;1949;48.152;11.528;2023-05-10T17:45:16;17.50;51.00
3868;DHT22;1949;48.152;11.528;2023-05-10T17:47:41;17.50;51.20
3868;DHT22;1949;48.152;11.528;2023-05-10T17:50:08;17.50;51.30
3868;DHT22;1949;48.152;11.528;2023-05-10T17:52:34;17.50;51.30
3868;DHT22;1949;48.152;11.528;2023-05-10T17:55:00;17.60;51.30
3868;DHT22;1949;48.152;11.528;2023-05-10T17:57:26;17.50;51.00
3868;DHT22;1949;48.152;11.528;2023-05-10T17:59:54;17.60;51.00
3868;DHT22;1949;48.152;11.528;2023-05-10T18:02:21;17.50;51.00
3868;DHT22;1949;48.152;11.528;2023-05-10T18:04:51;17.50;51.00
3868;DHT22;1949;48.152;11.528;2023-05-10T18:07:17;17.40;51.00
3868;DHT22;1949;48.152;11.528;2023-05-10T18:09:43;17.40;51.20
3868;DHT22;1949;48.152;11.528;2023-05-10T18:12:09;17.40;51.20
3868;DHT22;1949;48.152;11.528;2023-05-10T18:14:35;17.40;51.20
3868;DHT22;1949;48.152;11.528;2023-05-10T18:17:02;17.30;50.90
3868;DHT22;1949;48.152;11.528;2023-05-10T18:19:27;17.30;51.20
3868;DHT22;1949;48.152;11.528;2023-05-10T18:21:57;17.30;51.40
3868;DHT22;1949;48.152;11.528;2023-05-10T18:24:26;17.40;51.30
3868;DHT22;1949;48.152;11.528;2023-05-10T18:26:59;17.40;51.80
3868;DHT22;1949;48.152;11.528;2023-05-10T18:29:28;17.40;51.20
3868;DHT22;1949;48.152;11.528;2023-05-10T18:31:54;17.40;51.10
3868;DHT22;1949;48.152;11.528;2023-05-10T18:34:21;17.40;51.00
3868;DHT22;1949;48.152;11.528;2023-05-10T18:36:47;17.30;50.90
3868;DHT22;1949;48.152;11.528;2023-05-10T18:39:13;17.30;50.90
3868;DHT22;1949;48.152;11.528;2023-05-10T18:41:39;17.20;50.90
3868;DHT22;1949;48.152;11.528;2023-05-10T18:44:06;17.10;50.90
3868;DHT22;1949;48.152;11.528;2023-05-10T18:46:34;17.10;51.10
3868;DHT22;1949;48.152;11.528;2023-05-10T18:49:01;17.10;51.10
3868;DHT22;1949;48.152;11.528;2023-05-10T18:51:28;17.10;51.20
3868;DHT22;1949;48.152;11.528;2023-05-10T18:53:56;17.10;51.60
3868;DHT22;1949;48.152;11.528;2023-05-10T18:56:22;17.00;50.90
3868;DHT22;1949;48.152;11.528;2023-05-10T18:58:48;17.00;50.90
3868;DHT22;1949;48.152;11.528;2023-05-10T19:01:15;17.00;51.20
3868;DHT22;1949;48.152;11.528;2023-05-10T19:03:40;17.00;51.10
3868;DHT22;1949;48.152;11.528;2023-05-10T19:06:13;16.90;51.10